Time;durP1;ratioP1;P1;durP2;ratioP2;P2;SDS_P1;SDS_P2;PMS_P1;PMS_P2;Temp;Humidity;BMP_temperature;BMP_pressure;BME280_temperature;BME280_humidity;BME280_pressure;Samples;Min_cycle;Max_cycle;Signal;HPM_P1;HPM_P2
2021/07/16 00:00:11;;;;;;;4.80;4.10;;;22.80;99.90;;;;;;5073994;28;20452;-79
2021/07/16 00:02:39;;;;;;;6.07;4.23;;;22.80;99.90;;;;;;5073786;28;20472;-79
2021/07/16 00:05:07;;;;;;;5.67;4.50;;;22.80;99.90;;;;;;5074339;28;20503;-79
2021/07/16 00:07:34;;;;;;;5.53;4.63;;;22.80;99.90;;;;;;5072447;28;20452;-79
2021/07/16 00:10:00;;;;;;;7.17;4.47;;;22.70;99.90;;;;;;5072803;28;20472;-79
2021/07/16 00:12:28;;;;;;;8.43;4.50;;;22.70;99.90;;;;;;5072613;28;20472;-79
2021/07/16 00:14:55;;;;;;;5.17;4.67;;;22.70;99.90;;;;;;5072447;28;20441;-78
2021/07/16 00:17:22;;;;;;;5.30;4.40;;;22.70;99.90;;;;;;5072406;28;20839;-77
2021/07/16 00:19:49;;;;;;;8.07;4.40;;;22.70;99.90;;;;;;5072480;28;20460;-77
2021/07/16 00:22:15;;;;;;;6.33;3.80;;;22.70;99.90;;;;;;5072512;28;20449;-77
2021/07/16 00:24:42;;;;;;;5.97;4.27;;;22.70;99.90;;;;;;5071469;28;20449;-77
2021/07/16 00:27:09;;;;;;;6.93;4.10;;;22.70;99.90;;;;;;5072302;28;20437;-77
2021/07/16 00:29:37;;;;;;;5.90;4.50;;;22.70;99.90;;;;;;5072312;28;20453;-77
2021/07/16 00:32:04;;;;;;;7.67;4.90;;;22.70;99.90;;;;;;5072085;28;20811;-77
2021/07/16 00:34:31;;;;;;;4.33;3.93;;;22.70;99.90;;;;;;5072081;28;20519;-78
2021/07/16 00:36:57;;;;;;;7.60;4.80;;;22.60;99.90;;;;;;5072977;28;20448;-77
2021/07/16 00:39:24;;;;;;;5.70;4.27;;;22.60;99.90;;;;;;5072049;28;20532;-77
2021/07/16 00:41:51;;;;;;;4.57;4.17;;;22.60;99.90;;;;;;5073351;28;20477;-78
2021/07/16 00:44:19;;;;;;;4.40;3.97;;;22.60;99.90;;;;;;5072709;28;20779;-78
2021/07/16 00:46:47;;;;;;;5.80;4.10;;;22.60;99.90;;;;;;5062917;28;20446;-78
2021/07/16 00:49:14;;;;;;;5.18;4.35;;;22.60;99.90;;;;;;5063087;28;20562;-78
2021/07/16 00:51:41;;;;;;;5.07;4.55;;;22.60;99.90;;;;;;5073100;28;20210;-79
2021/07/16 00:54:09;;;;;;;7.10;5.00;;;22.60;99.90;;;;;;5070141;28;20251;-78
2021/07/16 00:56:36;;;;;;;6.63;4.53;;;22.60;99.90;;;;;;5069915;28;20448;-78
2021/07/16 00:59:03;;;;;;;5.50;3.83;;;22.60;99.90;;;;;;5070223;28;20447;-78
2021/07/16 01:01:30;;;;;;;5.22;4.00;;;22.60;99.90;;;;;;5070750;28;20444;-78
2021/07/16 01:03:58;;;;;;;5.43;4.80;;;22.60;99.90;;;;;;5070637;28;20198;-78
2021/07/16 01:06:25;;;;;;;4.90;4.13;;;22.60;99.90;;;;;;5070314;28;20445;-77
2021/07/16 01:08:52;;;;;;;5.33;4.20;;;22.60;99.90;;;;;;5071053;28;20452;-78
2021/07/16 01:11:18;;;;;;;5.70;4.22;;;22.60;99.90;;;;;;5072524;28;20449;-76
2021/07/16 01:13:45;;;;;;;5.30;4.13;;;22.60;99.90;;;;;;5071850;28;20198;-78
2021/07/16 01:16:12;;;;;;;4.43;4.13;;;22.50;99.90;;;;;;5072129;28;20571;-78
2021/07/16 01:18:38;;;;;;;6.60;4.70;;;22.50;99.90;;;;;;5072409;28;20449;-77
2021/07/16 01:21:07;;;;;;;8.63;4.68;;;22.50;99.90;;;;;;5072348;28;20443;-78
2021/07/16 01:23:36;;;;;;;4.53;3.50;;;22.50;99.90;;;;;;5072702;28;20187;-78
2021/07/16 01:26:05;;;;;;;6.10;4.87;;;22.50;99.90;;;;;;5072662;28;20464;-78
2021/07/16 01:28:32;;;;;;;4.82;4.45;;;22.50;99.90;;;;;;5072718;28;20528;-78
2021/07/16 01:30:59;;;;;;;8.48;4.25;;;22.50;99.90;;;;;;5072636;28;20201;-78
2021/07/16 01:33:26;;;;;;;6.20;3.77;;;22.50;99.90;;;;;;5072794;28;20229;-77
2021/07/16 01:35:53;;;;;;;6.47;4.40;;;22.50;99.90;;;;;;5072266;28;20823;-77
2021/07/16 01:38:20;;;;;;;5.73;4.00;;;22.50;99.90;;;;;;5072303;28;20441;-78
2021/07/16 01:40:48;;;;;;;7.20;4.35;;;22.40;99.90;;;;;;5071647;28;20460;-78
2021/07/16 01:43:15;;;;;;;6.07;3.95;;;22.40;99.90;;;;;;5071766;28;20194;-77
2021/07/16 01:45:43;;;;;;;4.05;3.50;;;22.40;99.90;;;;;;5072408;28;20221;-79
2021/07/16 01:48:11;;;;;;;5.50;3.83;;;22.40;99.90;;;;;;5072126;28;20198;-79
2021/07/16 01:50:41;;;;;;;4.47;4.07;;;22.40;99.90;;;;;;5072138;28;20191;-80
2021/07/16 01:53:09;;;;;;;3.70;3.37;;;22.40;99.90;;;;;;5072754;28;20472;-78
2021/07/16 01:55:36;;;;;;;9.97;4.20;;;22.40;99.90;;;;;;5072213;28;20441;-77
2021/07/16 01:58:08;;;;;;;5.85;3.90;;;22.40;99.90;;;;;;5072363;28;20448;-79
2021/07/16 02:00:36;;;;;;;6.10;4.05;;;22.40;99.90;;;;;;5072147;28;20199;-78
2021/07/16 02:03:05;;;;;;;4.32;3.75;;;22.30;99.90;;;;;;5072272;28;20203;-78
2021/07/16 02:05:33;;;;;;;6.77;4.07;;;22.30;99.90;;;;;;5070320;28;20195;-78
2021/07/16 02:08:02;;;;;;;7.28;4.35;;;22.30;99.90;;;;;;5068575;28;20441;-80
2021/07/16 02:10:29;;;;;;;5.35;3.40;;;22.30;99.90;;;;;;5068176;28;20201;-79
2021/07/16 02:12:57;;;;;;;5.30;4.57;;;22.30;99.90;;;;;;5066060;28;20215;-79
2021/07/16 02:15:27;;;;;;;5.18;3.95;;;22.30;99.90;;;;;;5070341;28;20206;-79
2021/07/16 02:17:54;;;;;;;5.35;3.67;;;22.30;99.90;;;;;;5070925;28;20373;-80
2021/07/16 02:20:23;;;;;;;9.45;4.07;;;22.30;99.90;;;;;;5069514;28;20562;-79
2021/07/16 02:22:51;;;;;;;5.88;4.18;;;22.30;99.90;;;;;;5066929;28;20198;-78
2021/07/16 02:25:18;;;;;;;4.15;3.85;;;22.30;99.90;;;;;;5070586;28;20357;-79
2021/07/16 02:27:46;;;;;;;3.50;3.10;;;22.30;99.90;;;;;;5071513;28;20203;-79
2021/07/16 02:30:15;;;;;;;6.60;3.92;;;22.30;99.90;;;;;;5070888;28;20191;-79
2021/07/16 02:32:44;;;;;;;5.25;3.88;;;22.20;99.90;;;;;;5070429;28;20255;-76
2021/07/16 02:35:12;;;;;;;5.43;3.53;;;22.20;99.90;;;;;;5068698;28;20241;-77
2021/07/16 02:37:39;;;;;;;4.70;3.95;;;22.20;99.90;;;;;;5067799;28;20241;-78
2021/07/16 02:40:08;;;;;;;4.10;3.47;;;22.20;99.90;;;;;;5068619;28;20198;-77
2021/07/16 02:42:35;;;;;;;5.03;3.92;;;22.20;99.90;;;;;;5068689;28;20221;-77
2021/07/16 02:45:05;;;;;;;6.07;3.70;;;22.20;99.90;;;;;;5069821;28;20190;-77
2021/07/16 02:47:31;;;;;;;4.40;3.88;;;22.20;99.90;;;;;;5069615;28;20244;-78
2021/07/16 02:49:59;;;;;;;4.97;4.10;;;22.20;99.90;;;;;;5073058;28;20202;-78
2021/07/16 02:52:26;;;;;;;6.47;4.10;;;22.10;99.90;;;;;;5074815;28;20210;-78
2021/07/16 02:54:53;;;;;;;5.88;3.40;;;22.20;99.90;;;;;;5075231;28;20206;-78
2021/07/16 02:57:19;;;;;;;10.02;4.00;;;22.10;99.90;;;;;;5074512;28;20202;-79
2021/07/16 02:59:46;;;;;;;4.03;3.33;;;22.10;99.90;;;;;;5075177;28;20183;-79
2021/07/16 03:02:13;;;;;;;5.68;4.18;;;22.10;99.90;;;;;;5075338;28;20191;-78
2021/07/16 03:04:39;;;;;;;6.10;3.67;;;22.10;99.90;;;;;;5074911;28;20652;-79
2021/07/16 03:07:07;;;;;;;5.07;3.30;;;22.10;99.90;;;;;;5074969;28;20193;-79
2021/07/16 03:09:35;;;;;;;4.28;3.55;;;22.10;99.90;;;;;;5074901;28;20194;-79
2021/07/16 03:12:02;;;;;;;5.85;4.25;;;22.10;99.90;;;;;;5075019;28;20226;-79
2021/07/16 03:14:29;;;;;;;3.88;2.97;;;22.10;99.90;;;;;;5074821;28;20641;-79
2021/07/16 03:16:56;;;;;;;4.82;3.50;;;22.00;99.90;;;;;;5074349;28;20198;-78
2021/07/16 03:19:23;;;;;;;3.65;3.35;;;22.00;99.90;;;;;;5075015;28;20206;-80
2021/07/16 03:21:50;;;;;;;3.22;2.95;;;22.00;99.90;;;;;;5074488;28;20210;-79
2021/07/16 03:24:19;;;;;;;3.97;3.58;;;22.00;99.90;;;;;;5073672;28;20199;-83
2021/07/16 03:26:46;;;;;;;4.20;3.53;;;22.00;99.90;;;;;;5073937;28;20194;-83
2021/07/16 03:29:13;;;;;;;6.10;3.97;;;22.00;99.90;;;;;;5072702;28;20195;-80
2021/07/16 03:31:40;;;;;;;3.65;3.35;;;22.00;99.90;;;;;;5073038;28;20405;-80
2021/07/16 03:34:07;;;;;;;3.45;3.03;;;22.00;99.90;;;;;;5070410;28;20222;-79
2021/07/16 03:36:34;;;;;;;5.68;3.83;;;22.00;99.90;;;;;;5071293;28;20191;-79
2021/07/16 03:39:01;;;;;;;4.03;3.67;;;21.90;99.90;;;;;;5070861;28;20199;-79
2021/07/16 03:41:29;;;;;;;3.85;3.50;;;21.90;99.90;;;;;;5072198;28;20246;-79
2021/07/16 03:43:56;;;;;;;3.85;3.30;;;21.90;99.90;;;;;;5073014;28;20191;-78
2021/07/16 03:46:27;;;;;;;4.40;4.00;;;21.90;99.90;;;;;;5073279;28;20206;-79
2021/07/16 03:48:54;;;;;;;4.38;3.38;;;21.90;99.90;;;;;;5073568;28;20593;-79
2021/07/16 03:51:21;;;;;;;4.65;3.10;;;21.90;99.90;;;;;;5074308;28;20214;-80
2021/07/16 03:53:47;;;;;;;5.15;3.65;;;21.90;99.90;;;;;;5074693;28;20550;-80
2021/07/16 03:56:14;;;;;;;2.97;2.60;;;21.90;99.90;;;;;;5074637;28;20199;-78
2021/07/16 03:58:45;;;;;;;3.90;3.50;;;21.90;99.90;;;;;;5073920;28;20202;-77
2021/07/16 04:01:12;;;;;;;4.20;3.10;;;21.90;99.90;;;;;;5073813;28;20190;-78
2021/07/16 04:03:39;;;;;;;4.30;3.90;;;21.90;99.90;;;;;;5074568;28;20203;-78
2021/07/16 04:06:06;;;;;;;3.97;3.45;;;21.90;99.90;;;;;;5074646;28;20202;-78
2021/07/16 04:08:35;;;;;;;3.80;3.40;;;21.90;99.90;;;;;;5073461;28;20253;-78
2021/07/16 04:11:02;;;;;;;4.18;3.55;;;21.80;99.90;;;;;;5073509;28;20561;-77
2021/07/16 04:13:28;;;;;;;4.28;3.30;;;21.80;99.90;;;;;;5074181;28;20225;-77
2021/07/16 04:15:56;;;;;;;4.35;4.05;;;21.80;99.90;;;;;;5073542;28;20198;-77
2021/07/16 04:18:23;;;;;;;3.50;2.92;;;21.80;99.90;;;;;;5074061;28;20207;-77
2021/07/16 04:20:50;;;;;;;3.22;2.95;;;21.80;99.90;;;;;;5073934;28;20488;-77
2021/07/16 04:23:16;;;;;;;4.70;3.65;;;21.80;99.90;;;;;;5073859;28;20202;-78
2021/07/16 04:25:44;;;;;;;3.65;3.35;;;21.80;99.90;;;;;;5073325;28;20210;-79
2021/07/16 04:28:11;;;;;;;3.65;2.78;;;21.80;99.90;;;;;;5074018;28;20523;-80
2021/07/16 04:30:38;;;;;;;3.13;2.83;;;21.80;99.90;;;;;;5072956;28;20202;-79
2021/07/16 04:33:06;;;;;;;3.90;2.65;;;21.80;99.90;;;;;;5073886;28;20225;-80
2021/07/16 04:35:34;;;;;;;4.40;2.90;;;21.80;99.90;;;;;;5073731;28;20214;-80
2021/07/16 04:38:00;;;;;;;4.30;3.90;;;21.80;99.90;;;;;;5073358;28;20203;-79
2021/07/16 04:40:27;;;;;;;3.53;3.22;;;21.80;99.90;;;;;;5072717;28;20218;-79
2021/07/16 04:42:56;;;;;;;3.60;3.30;;;21.70;99.90;;;;;;5072189;28;20218;-80
2021/07/16 04:45:24;;;;;;;4.63;3.45;;;21.70;99.90;;;;;;5071855;28;20541;-79
2021/07/16 04:47:51;;;;;;;4.22;3.80;;;21.70;99.90;;;;;;5072397;28;20214;-80
2021/07/16 04:50:20;;;;;;;3.75;3.17;;;21.70;99.90;;;;;;5072021;28;20278;-79
2021/07/16 04:52:49;;;;;;;4.90;4.40;;;21.70;99.90;;;;;;5072095;28;20215;-80
2021/07/16 04:55:17;;;;;;;4.20;3.80;;;21.70;99.90;;;;;;5072086;28;20229;-79
2021/07/16 04:57:44;;;;;;;3.63;3.30;;;21.70;99.90;;;;;;5072019;28;20205;-78
2021/07/16 05:00:12;;;;;;;5.45;3.95;;;21.70;99.90;;;;;;5074591;28;20199;-76
2021/07/16 05:02:39;;;;;;;3.53;3.22;;;21.70;99.90;;;;;;5077115;28;20548;-77
2021/07/16 05:05:08;;;;;;;3.72;3.42;;;21.70;99.90;;;;;;5077363;28;20205;-76
2021/07/16 05:07:36;;;;;;;3.90;3.47;;;21.70;99.90;;;;;;5076735;28;20199;-76
2021/07/16 05:10:04;;;;;;;3.58;3.28;;;21.70;99.90;;;;;;5076904;28;20199;-76
2021/07/16 05:12:31;;;;;;;3.83;3.40;;;21.70;99.90;;;;;;5071020;28;20198;-78
2021/07/16 05:14:58;;;;;;;4.38;3.97;;;21.70;99.90;;;;;;5071477;28;20600;-77
2021/07/16 05:17:25;;;;;;;4.03;3.55;;;21.70;99.90;;;;;;5071817;28;20199;-78
2021/07/16 05:19:51;;;;;;;4.32;3.33;;;21.70;99.90;;;;;;5072535;28;20630;-77
2021/07/16 05:22:18;;;;;;;3.53;3.22;;;21.60;99.90;;;;;;5073595;28;20461;-78
2021/07/16 05:24:46;;;;;;;4.40;3.97;;;21.60;99.90;;;;;;5072571;28;20205;-78
2021/07/16 05:27:13;;;;;;;4.75;4.22;;;21.60;99.90;;;;;;5072474;28;20269;-76
2021/07/16 05:29:39;;;;;;;5.80;3.92;;;21.60;99.90;;;;;;5072647;28;20667;-75
2021/07/16 05:32:07;;;;;;;4.00;3.58;;;21.60;99.90;;;;;;5072827;28;20202;-76
2021/07/16 05:34:34;;;;;;;3.58;3.28;;;21.60;99.90;;;;;;5072579;28;20218;-76
2021/07/16 05:37:01;;;;;;;6.28;3.65;;;21.60;99.90;;;;;;5072488;28;20198;-76
2021/07/16 05:39:28;;;;;;;3.72;3.35;;;21.60;99.90;;;;;;5072163;28;20523;-77
2021/07/16 05:41:56;;;;;;;4.50;3.65;;;21.60;99.90;;;;;;5072232;28;20258;-77
2021/07/16 05:44:23;;;;;;;5.55;3.85;;;21.60;99.90;;;;;;5071966;28;20207;-77
2021/07/16 05:46:50;;;;;;;7.40;3.92;;;21.60;99.90;;;;;;5072295;28;20195;-77
2021/07/16 05:49:16;;;;;;;5.53;3.03;;;21.60;99.90;;;;;;5072639;28;20246;-78
2021/07/16 05:51:43;;;;;;;4.63;4.18;;;21.60;99.90;;;;;;5072246;28;20210;-77
2021/07/16 05:54:10;;;;;;;3.78;3.47;;;21.60;99.90;;;;;;5052799;28;20219;-79
2021/07/16 05:56:40;;;;;;;4.55;4.03;;;21.60;99.90;;;;;;5058250;28;20198;-78
2021/07/16 05:59:09;;;;;;;5.03;3.85;;;21.60;99.90;;;;;;5070180;28;20195;-77
2021/07/16 06:01:35;;;;;;;5.20;3.60;;;21.60;99.90;;;;;;5069612;28;20545;-76
2021/07/16 06:04:09;;;;;;;4.95;3.80;;;21.60;99.90;;;;;;5070622;28;20186;-75
2021/07/16 06:06:36;;;;;;;4.78;3.60;;;21.60;99.90;;;;;;5061653;28;20252;-77
2021/07/16 06:09:03;;;;;;;4.00;3.70;;;21.60;99.90;;;;;;5070636;28;20206;-76
2021/07/16 06:11:31;;;;;;;5.38;3.75;;;21.60;99.90;;;;;;5070495;28;20202;-76
2021/07/16 06:13:57;;;;;;;4.60;3.85;;;21.60;99.90;;;;;;5067166;28;20271;-75
2021/07/16 06:16:26;;;;;;;7.55;4.20;;;21.60;99.90;;;;;;5068199;28;20566;-76
2021/07/16 06:18:52;;;;;;;3.75;3.40;;;21.60;99.90;;;;;;5069028;28;20631;-76
2021/07/16 06:21:19;;;;;;;9.25;4.65;;;21.60;99.90;;;;;;5069640;28;20541;-76
2021/07/16 06:23:46;;;;;;;5.35;4.18;;;21.50;99.90;;;;;;5072119;28;20182;-76
2021/07/16 06:26:13;;;;;;;4.55;3.83;;;21.50;99.90;;;;;;5074753;28;20569;-76
2021/07/16 06:28:40;;;;;;;4.68;3.78;;;21.50;99.90;;;;;;5074352;28;20191;-75
2021/07/16 06:31:07;;;;;;;4.22;3.72;;;21.50;99.90;;;;;;5074549;28;20191;-76
2021/07/16 06:33:35;;;;;;;10.77;4.18;;;21.50;99.90;;;;;;5074845;28;20222;-76
2021/07/16 06:36:02;;;;;;;5.53;4.28;;;21.50;99.90;;;;;;5075339;28;20214;-76
2021/07/16 06:38:28;;;;;;;4.65;4.00;;;21.50;99.90;;;;;;5075037;28;20210;-76
2021/07/16 06:40:55;;;;;;;5.72;4.30;;;21.50;99.90;;;;;;5074050;28;20202;-77
2021/07/16 06:43:22;;;;;;;6.75;4.95;;;21.50;99.90;;;;;;5074363;28;20195;-76
2021/07/16 06:45:48;;;;;;;5.55;4.32;;;21.50;99.90;;;;;;5073070;28;20202;-75
2021/07/16 06:48:15;;;;;;;4.63;4.22;;;21.50;99.90;;;;;;5074471;28;20470;-76
2021/07/16 06:50:43;;;;;;;4.72;4.15;;;21.50;99.90;;;;;;5064997;28;20530;-75
2021/07/16 06:53:10;;;;;;;5.75;4.65;;;21.50;99.90;;;;;;5071475;28;20203;-76
2021/07/16 06:55:37;;;;;;;4.32;3.92;;;21.50;99.90;;;;;;5063810;28;20650;-76
2021/07/16 06:58:04;;;;;;;5.95;4.25;;;21.50;99.90;;;;;;5074601;28;20637;-75
2021/07/16 07:00:33;;;;;;;4.53;4.20;;;21.50;99.90;;;;;;5075142;28;20255;-75
2021/07/16 07:03:00;;;;;;;5.13;4.55;;;21.50;99.90;;;;;;5074697;28;20241;-76
2021/07/16 07:05:27;;;;;;;6.38;4.32;;;21.50;99.90;;;;;;5074821;28;20191;-75
2021/07/16 07:07:55;;;;;;;7.40;4.57;;;21.50;99.90;;;;;;5073947;28;20211;-76
2021/07/16 07:10:21;;;;;;;6.07;4.30;;;21.50;99.90;;;;;;5073520;28;20195;-76
2021/07/16 07:12:48;;;;;;;5.00;4.50;;;21.50;99.90;;;;;;5080490;28;20206;-76
2021/07/16 07:15:15;;;;;;;5.95;4.55;;;21.50;99.90;;;;;;5079389;28;20222;-76
2021/07/16 07:17:42;;;;;;;4.40;4.00;;;21.50;99.90;;;;;;5087419;28;20210;-76
2021/07/16 07:20:11;;;;;;;5.30;3.90;;;21.50;99.90;;;;;;5084836;28;20242;-76
2021/07/16 07:22:38;;;;;;;4.63;4.00;;;21.50;99.90;;;;;;5071344;28;20214;-77
2021/07/16 07:25:08;;;;;;;6.78;4.05;;;21.50;99.90;;;;;;5080139;28;20190;-76
2021/07/16 07:27:35;;;;;;;6.78;4.10;;;21.50;99.90;;;;;;5081505;28;20617;-76
2021/07/16 07:30:02;;;;;;;4.25;3.92;;;21.50;99.90;;;;;;5085041;28;20210;-76
2021/07/16 07:32:29;;;;;;;5.35;4.43;;;21.50;99.90;;;;;;5080257;28;20213;-77
2021/07/16 07:34:56;;;;;;;4.85;4.20;;;21.50;99.90;;;;;;5076337;28;20222;-76
2021/07/16 07:37:22;;;;;;;5.00;4.20;;;21.50;99.90;;;;;;5075980;28;20195;-76
2021/07/16 07:39:58;;;;;;;4.88;4.38;;;21.50;99.90;;;;;;5072558;28;20198;-76
2021/07/16 07:42:26;;;;;;;7.03;3.85;;;21.50;99.90;;;;;;5065799;28;20227;-76
2021/07/16 07:44:54;;;;;;;6.38;4.15;;;21.50;99.90;;;;;;5074732;28;20195;-76
2021/07/16 07:47:21;;;;;;;4.97;3.78;;;21.50;99.90;;;;;;5075557;28;20227;-76
2021/07/16 07:49:48;;;;;;;5.20;4.25;;;21.50;99.90;;;;;;5075095;28;20230;-76
2021/07/16 07:52:16;;;;;;;4.18;3.40;;;21.50;99.90;;;;;;5077184;28;20202;-81
2021/07/16 07:54:43;;;;;;;4.85;4.35;;;21.50;99.90;;;;;;5075234;28;20240;-75
2021/07/16 07:57:09;;;;;;;8.05;4.80;;;21.50;99.90;;;;;;5073850;28;20206;-75
2021/07/16 07:59:38;;;;;;;6.25;4.25;;;21.50;99.90;;;;;;5074646;28;20545;-76
2021/07/16 08:02:05;;;;;;;5.05;4.47;;;21.50;99.90;;;;;;5075089;28;20677;-76
2021/07/16 08:04:31;;;;;;;8.85;4.93;;;21.50;99.90;;;;;;5074597;28;20194;-76
2021/07/16 08:06:58;;;;;;;5.43;4.30;;;21.50;99.90;;;;;;5073893;28;20452;-75
2021/07/16 08:09:25;;;;;;;5.40;4.35;;;21.50;99.90;;;;;;5070815;28;20193;-75
2021/07/16 08:11:51;;;;;;;6.15;5.25;;;21.50;99.90;;;;;;5070591;28;20203;-76
2021/07/16 08:14:18;;;;;;;5.13;4.63;;;21.50;99.90;;;;;;5071762;28;20219;-76
2021/07/16 08:16:47;;;;;;;11.77;6.05;;;21.50;99.90;;;;;;5075260;28;20199;-75
2021/07/16 08:19:17;;;;;;;13.10;4.97;;;21.50;99.90;;;;;;5073231;28;20230;-75
2021/07/16 08:21:45;;;;;;;11.60;5.22;;;21.50;99.90;;;;;;5075144;28;20285;-75
2021/07/16 08:24:12;;;;;;;10.75;5.70;;;21.50;99.90;;;;;;5076699;28;20618;-75
2021/07/16 08:26:39;;;;;;;14.00;5.22;;;21.50;99.90;;;;;;5073637;28;20198;-75
2021/07/16 08:29:06;;;;;;;13.75;5.05;;;21.50;99.90;;;;;;5073379;28;20206;-75
2021/07/16 08:31:33;;;;;;;9.05;4.97;;;21.50;99.90;;;;;;5056895;28;20630;-75
2021/07/16 08:34:01;;;;;;;8.00;5.35;;;21.50;99.90;;;;;;5072271;28;20240;-75
2021/07/16 08:36:28;;;;;;;8.35;5.47;;;21.50;99.90;;;;;;5072638;28;20203;-75
2021/07/16 08:38:54;;;;;;;11.05;5.20;;;21.50;99.90;;;;;;5072540;28;20292;-75
2021/07/16 08:41:22;;;;;;;6.97;4.38;;;21.50;99.90;;;;;;5072809;28;20689;-75
2021/07/16 08:43:51;;;;;;;12.20;5.38;;;21.50;99.90;;;;;;5072807;28;20202;-75
2021/07/16 08:46:18;;;;;;;8.88;5.03;;;21.50;99.90;;;;;;5055797;28;20233;-74
2021/07/16 08:48:47;;;;;;;12.23;7.25;;;21.50;99.90;;;;;;5053949;28;20618;-76
2021/07/16 08:51:17;;;;;;;9.93;4.40;;;21.50;99.90;;;;;;5057134;28;20202;-75
2021/07/16 08:53:45;;;;;;;4.82;4.30;;;21.50;99.90;;;;;;5065494;28;20638;-75
2021/07/16 08:56:12;;;;;;;7.43;5.60;;;21.50;99.90;;;;;;5058722;28;20594;-76
2021/07/16 08:58:38;;;;;;;7.72;5.20;;;21.50;99.90;;;;;;5072792;28;20217;-75
2021/07/16 09:01:05;;;;;;;7.88;4.25;;;21.50;99.90;;;;;;5072697;28;20205;-75
2021/07/16 09:03:32;;;;;;;11.85;4.95;;;21.50;99.90;;;;;;5073736;28;20233;-77
2021/07/16 09:06:00;;;;;;;13.40;5.18;;;21.50;99.90;;;;;;5073000;28;20660;-78
2021/07/16 09:08:28;;;;;;;10.05;4.90;;;21.50;99.90;;;;;;5075307;28;20198;-76
2021/07/16 09:10:58;;;;;;;10.45;5.20;;;21.50;99.90;;;;;;5074115;28;20294;-76
2021/07/16 09:13:27;;;;;;;19.42;8.70;;;21.30;99.90;;;;;;5074176;28;20542;-76
2021/07/16 09:15:59;;;;;;;15.80;6.00;;;21.40;99.90;;;;;;5069710;28;20214;-76
2021/07/16 09:18:27;;;;;;;11.02;5.25;;;21.40;99.90;;;;;;5057515;28;20630;-76
2021/07/16 09:21:07;;;;;;;8.60;5.30;;;21.50;99.90;;;;;;5073079;28;20202;-76
2021/07/16 09:23:37;;;;;;;13.50;5.95;;;21.50;99.90;;;;;;5073258;28;20229;-75
2021/07/16 09:26:08;;;;;;;10.13;4.78;;;21.50;99.90;;;;;;5066103;28;20684;-74
2021/07/16 09:28:36;;;;;;;9.43;5.97;;;21.50;99.90;;;;;;5073035;28;20202;-75
2021/07/16 09:31:21;;;;;;;11.98;6.47;;;21.60;99.90;;;;;;5073141;28;20206;-75
2021/07/16 09:33:50;;;;;;;22.88;6.65;;;21.40;99.90;;;;;;5067377;28;20242;-74
2021/07/16 09:36:29;;;;;;;13.85;6.10;;;21.50;99.90;;;;;;5070308;28;20222;-73
2021/07/16 09:38:58;;;;;;;13.15;5.70;;;21.50;99.90;;;;;;5072843;28;20198;-76
2021/07/16 09:41:25;;;;;;;13.57;5.47;;;21.50;99.90;;;;;;5069657;28;20237;-76
2021/07/16 09:43:58;;;;;;;6.85;5.40;;;21.60;99.90;;;;;;5072405;28;20198;-75
2021/07/16 09:46:25;;;;;;;18.70;6.75;;;21.60;99.90;;;;;;5059425;28;20291;-76
2021/07/16 09:48:51;;;;;;;14.15;6.35;;;21.60;99.90;;;;;;5063297;28;20199;-76
2021/07/16 09:51:20;;;;;;;8.57;4.88;;;21.70;99.90;;;;;;5053796;28;20200;-75
2021/07/16 09:53:51;;;;;;;10.45;5.20;;;21.70;99.90;;;;;;5052590;28;20342;-74
2021/07/16 09:56:22;;;;;;;14.73;6.80;;;21.70;99.90;;;;;;5051810;28;20246;-76
2021/07/16 09:58:59;;;;;;;9.30;5.20;;;21.70;99.90;;;;;;5072053;28;20198;-77
2021/07/16 10:01:27;;;;;;;12.48;5.28;;;21.70;99.90;;;;;;5076263;28;20206;-74
2021/07/16 10:03:58;;;;;;;11.43;4.88;;;21.70;99.90;;;;;;5075557;28;20217;-73
2021/07/16 10:06:27;;;;;;;8.43;5.43;;;21.70;99.90;;;;;;5073513;28;20186;-75
2021/07/16 10:08:55;;;;;;;10.98;4.95;;;21.80;99.90;;;;;;5074783;28;20809;-75
2021/07/16 10:11:24;;;;;;;10.18;4.30;;;21.80;99.90;;;;;;5075265;28;20198;-74
2021/07/16 10:13:53;;;;;;;10.27;4.90;;;21.80;99.90;;;;;;5065836;28;20199;-74
2021/07/16 10:16:20;;;;;;;8.38;5.00;;;21.80;99.90;;;;;;5060606;28;20737;-73
2021/07/16 10:18:48;;;;;;;9.20;4.35;;;21.80;99.90;;;;;;5055088;28;20207;-76
2021/07/16 10:21:15;;;;;;;13.43;4.75;;;21.80;99.90;;;;;;5074871;28;20601;-76
2021/07/16 10:23:42;;;;;;;12.75;5.47;;;21.80;99.90;;;;;;5075484;28;20202;-75
2021/07/16 10:26:13;;;;;;;10.85;4.90;;;21.80;99.90;;;;;;5074997;28;20190;-74
2021/07/16 10:28:42;;;;;;;10.77;5.10;;;21.90;99.90;;;;;;5058783;28;20200;-74
2021/07/16 10:31:42;;;;;;;8.00;5.20;;;21.90;99.90;;;;;;5055337;28;20534;-75
2021/07/16 10:34:33;;;;;;;8.93;4.30;;;21.90;99.90;;;;;;5070401;28;20302;-74
2021/07/16 10:37:02;;;;;;;13.65;5.47;;;21.90;99.90;;;;;;5073981;28;20195;-77
2021/07/16 10:39:46;;;;;;;6.53;4.03;;;21.90;99.90;;;;;;5061635;28;20233;-75
2021/07/16 10:42:47;;;;;;;12.35;4.90;;;21.90;99.90;;;;;;5063795;28;20230;-75
2021/07/16 10:45:30;;;;;;;7.40;3.60;;;21.90;99.90;;;;;;5074615;28;20651;-76
2021/07/16 10:48:10;;;;;;;4.47;3.83;;;21.90;99.90;;;;;;5072896;28;20285;-74
2021/07/16 10:50:38;;;;;;;7.43;4.80;;;21.90;99.90;;;;;;5071685;28;20183;-74
2021/07/16 10:53:05;;;;;;;10.38;5.72;;;21.90;99.90;;;;;;5072853;28;20205;-74
2021/07/16 10:56:05;;;;;;;10.68;5.50;;;21.90;99.90;;;;;;5072937;28;20515;-75
2021/07/16 10:58:44;;;;;;;8.50;4.75;;;21.90;99.90;;;;;;5051869;28;20199;-73
2021/07/16 11:01:13;;;;;;;6.53;4.38;;;21.90;99.90;;;;;;5065538;28;20202;-73
2021/07/16 11:03:42;;;;;;;9.32;5.05;;;21.90;99.90;;;;;;5071703;28;20195;-75
2021/07/16 11:06:10;;;;;;;7.50;4.28;;;21.90;99.90;;;;;;5064711;28;20557;-74
2021/07/16 11:08:53;;;;;;;7.47;3.85;;;21.90;99.90;;;;;;5074545;28;20210;-75
2021/07/16 11:11:21;;;;;;;4.88;4.35;;;21.90;99.90;;;;;;5073398;28;20187;-74
2021/07/16 11:13:49;;;;;;;5.93;4.13;;;22.00;99.90;;;;;;5073879;28;20542;-73
2021/07/16 11:16:45;;;;;;;11.77;4.80;;;22.00;99.90;;;;;;5070950;28;20712;-77
2021/07/16 11:19:23;;;;;;;8.68;3.97;;;22.00;99.90;;;;;;5074660;28;20243;-79
2021/07/16 11:22:08;;;;;;;8.07;5.22;;;22.00;99.90;;;;;;5059439;28;20199;-76
2021/07/16 11:24:40;;;;;;;7.13;4.38;;;22.00;99.90;;;;;;5054170;28;20210;-76
2021/07/16 11:27:10;;;;;;;5.90;4.18;;;22.00;99.90;;;;;;5054874;28;20611;-77
2021/07/16 11:29:40;;;;;;;12.13;4.30;;;22.00;99.90;;;;;;5054973;28;20217;-75
2021/07/16 11:32:11;;;;;;;9.95;4.18;;;22.00;99.90;;;;;;5075000;28;20549;-75
2021/07/16 11:34:39;;;;;;;5.80;4.35;;;22.00;99.90;;;;;;5075069;28;20199;-76
2021/07/16 11:37:06;;;;;;;5.10;4.55;;;22.00;99.90;;;;;;5075048;28;20630;-75
2021/07/16 11:39:34;;;;;;;12.57;4.35;;;22.00;99.90;;;;;;5074702;28;20203;-76
2021/07/16 11:42:03;;;;;;;17.35;5.35;;;22.00;99.90;;;;;;5074830;28;20237;-77
2021/07/16 11:44:31;;;;;;;9.35;4.15;;;22.00;99.90;;;;;;5074973;28;20213;-75
2021/07/16 11:46:58;;;;;;;9.55;4.72;;;22.00;99.90;;;;;;5073749;28;20644;-76
2021/07/16 11:49:29;;;;;;;9.35;5.05;;;22.00;99.90;;;;;;5074667;28;20217;-77
2021/07/16 11:52:01;;;;;;;11.60;5.95;;;22.00;99.90;;;;;;5061874;28;20662;-75
2021/07/16 11:54:29;;;;;;;6.55;4.50;;;22.00;99.90;;;;;;5054813;28;20199;-76
2021/07/16 11:56:57;;;;;;;10.52;4.85;;;22.00;99.90;;;;;;5055210;28;20230;-77
2021/07/16 11:59:25;;;;;;;7.28;4.32;;;22.00;99.90;;;;;;5062001;28;20238;-76
2021/07/16 12:02:10;;;;;;;10.77;4.80;;;22.00;99.90;;;;;;5069992;28;20209;-76
2021/07/16 12:04:39;;;;;;;7.95;4.07;;;22.00;99.90;;;;;;5070700;28;20202;-76
2021/07/16 12:07:07;;;;;;;9.35;4.57;;;22.10;99.90;;;;;;5069853;28;20209;-75
2021/07/16 12:09:35;;;;;;;4.72;3.72;;;22.10;99.90;;;;;;5071659;28;20199;-77
2021/07/16 12:12:05;;;;;;;10.77;4.15;;;22.10;99.90;;;;;;5073315;28;20198;-74
2021/07/16 12:14:48;;;;;;;6.20;4.53;;;22.20;99.90;;;;;;5072505;28;20572;-74
2021/07/16 12:17:16;;;;;;;13.65;4.43;;;22.20;99.90;;;;;;5073624;28;20567;-74
2021/07/16 12:19:45;;;;;;;8.73;4.50;;;22.30;99.90;;;;;;5068490;28;20249;-76
2021/07/16 12:22:13;;;;;;;8.48;4.53;;;22.30;99.90;;;;;;5072651;28;20456;-75
2021/07/16 12:24:41;;;;;;;5.43;3.88;;;22.30;99.90;;;;;;5073192;28;20413;-75
2021/07/16 12:27:09;;;;;;;10.63;4.13;;;22.30;99.90;;;;;;5073101;28;20534;-77
2021/07/16 12:29:36;;;;;;;5.67;3.80;;;22.40;99.90;;;;;;5070739;28;20904;-77
2021/07/16 12:32:03;;;;;;;8.43;4.33;;;22.40;99.90;;;;;;5069607;28;20456;-77
2021/07/16 12:34:30;;;;;;;7.73;3.50;;;22.40;99.90;;;;;;5069817;28;20449;-75
2021/07/16 12:37:09;;;;;;;6.83;4.10;;;22.40;99.90;;;;;;5072045;28;20480;-75
2021/07/16 12:39:36;;;;;;;3.60;2.97;;;22.40;99.90;;;;;;5068949;28;20495;-77
2021/07/16 12:42:11;;;;;;;8.47;4.70;;;22.40;99.90;;;;;;5063490;28;20479;-75
2021/07/16 12:44:38;;;;;;;6.83;3.63;;;22.40;99.90;;;;;;5070718;28;20444;-74
2021/07/16 12:47:05;;;;;;;6.47;3.83;;;22.40;99.90;;;;;;5071259;28;20441;-75
2021/07/16 12:49:32;;;;;;;11.47;4.87;;;22.40;99.90;;;;;;5070580;28;20442;-74
2021/07/16 12:52:13;;;;;;;12.60;4.88;;;22.40;99.90;;;;;;5063736;28;20491;-76